createdAt,value
2023-02-16T00:01:55.175Z,97405.06
2023-02-16T00:04:28.385Z,97408.94
2023-02-16T00:06:56.690Z,97357.56
2023-02-16T00:09:27.830Z,97407.75
2023-02-16T00:12:13.392Z,97404.91
2023-02-16T00:14:44.975Z,97411.09
2023-02-16T00:17:14.364Z,97414.91
2023-02-16T00:19:43.064Z,97363.47
2023-02-16T00:22:20.076Z,97409.16
2023-02-16T00:24:47.923Z,97401.19
2023-02-16T00:27:18.681Z,97407.28
2023-02-16T00:29:46.483Z,97411.03
2023-02-16T00:32:16.972Z,97405.66
2023-02-16T00:34:47.267Z,97408.38
2023-02-16T00:37:15.341Z,97408.16
2023-02-16T00:39:44.936Z,97406.34
2023-02-16T00:42:15.417Z,97394.31
2023-02-16T00:44:45.210Z,97398.28
2023-02-16T00:47:20.381Z,97384.88
2023-02-16T00:49:49.732Z,97407.75
2023-02-16T00:52:29.334Z,97396.78
2023-02-16T00:55:00.489Z,97381.31
2023-02-16T00:57:29.078Z,97393.75
2023-02-16T01:00:03.545Z,97395.25
2023-02-16T01:02:34.335Z,97399.72
2023-02-16T01:05:03.476Z,97410.19
2023-02-16T01:07:48.754Z,97401.81
2023-02-16T01:10:35.567Z,97398.56
2023-02-16T01:13:06.021Z,97399.72
2023-02-16T01:15:33.954Z,97397.25
2023-02-16T01:18:03.224Z,97404.69
2023-02-16T01:20:36.325Z,97395.19
2023-02-16T01:23:07.509Z,97402.06
2023-02-16T01:25:35.493Z,97400.66
2023-02-16T01:28:03.375Z,97394.38
2023-02-16T01:30:36.704Z,97351.38
2023-02-16T01:33:08.196Z,97395.56
2023-02-16T01:35:38.100Z,97398.56
2023-02-16T01:38:07.783Z,97397.63
2023-02-16T01:40:39.695Z,97341.13
2023-02-16T01:43:15.940Z,97397.75
2023-02-16T01:45:46.686Z,97106.81
2023-02-16T01:48:21.996Z,97389.69
2023-02-16T01:50:53.805Z,97387.81
2023-02-16T01:53:27.162Z,97390.91
2023-02-16T01:56:00.548Z,97387.25
2023-02-16T01:58:35.667Z,97268.28
2023-02-16T02:01:42.893Z,97375.34
2023-02-16T02:04:39.027Z,97338.94
2023-02-16T02:07:08.469Z,97369.03
2023-02-16T02:09:41.813Z,97373.88
2023-02-16T02:12:18.335Z,97374.72
2023-02-16T02:14:46.979Z,97358.00
2023-02-16T02:17:17.659Z,97381.81
2023-02-16T02:19:55.625Z,97370.31
2023-02-16T02:23:11.525Z,97372.38
2023-02-16T02:29:25.805Z,97369.28
2023-02-16T02:31:58.818Z,97351.13
2023-02-16T02:34:35.476Z,97354.75
2023-02-16T02:37:10.880Z,97365.28
2023-02-16T02:39:44.715Z,97361.09
2023-02-16T02:42:18.134Z,97363.44
2023-02-16T02:44:51.850Z,97363.06
2023-02-16T02:47:22.284Z,97364.88
2023-02-16T02:49:52.056Z,97366.09
2023-02-16T02:52:20.324Z,97365.50
2023-02-16T02:55:07.953Z,97358.19
2023-02-16T02:57:55.836Z,97358.63
2023-02-16T03:00:44.093Z,97350.09
2023-02-16T03:03:21.643Z,97345.97
2023-02-16T03:05:58.106Z,97350.28
2023-02-16T03:08:29.471Z,97346.28
2023-02-16T03:11:20.701Z,97344.41
2023-02-16T03:13:50.837Z,97354.53
2023-02-16T03:16:24.070Z,97346.94
2023-02-16T03:19:09.659Z,97351.44
2023-02-16T03:21:57.747Z,97339.47
2023-02-16T03:24:46.417Z,97358.00
2023-02-16T03:27:36.336Z,97345.88
2023-02-16T03:30:05.716Z,97355.63
2023-02-16T03:32:36.450Z,97355.00
2023-02-16T03:35:08.690Z,97349.72
2023-02-16T03:37:39.283Z,97318.44
2023-02-16T03:40:30.900Z,97346.66
2023-02-16T03:43:00.319Z,97338.84
2023-02-16T03:45:32.364Z,97350.09
2023-02-16T03:48:02.927Z,97365.09
2023-02-16T03:50:31.857Z,97310.22
2023-02-16T03:53:09.063Z,97357.41
2023-02-16T03:55:41.838Z,97397.13
2023-02-16T03:58:11.168Z,97346.31
2023-02-16T04:00:39.402Z,97321.09
2023-02-16T04:03:12.307Z,97362.19
2023-02-16T04:05:49.415Z,97363.66
2023-02-16T04:08:23.516Z,97369.94
2023-02-16T04:10:57.074Z,97376.38
2023-02-16T04:13:30.064Z,97373.13
2023-02-16T04:16:00.610Z,97342.47
2023-02-16T04:18:31.075Z,97096.75
2023-02-16T04:21:07.317Z,97380.00
2023-02-16T04:23:35.127Z,97379.03
2023-02-16T04:26:11.929Z,97375.28
2023-02-16T04:28:39.798Z,97350.94
2023-02-16T04:31:07.920Z,97369.84
2023-02-16T04:33:38.085Z,97368.09
2023-02-16T04:36:10.969Z,97384.06
2023-02-16T04:38:41.410Z,97372.22
2023-02-16T04:41:32.939Z,97374.56
2023-02-16T04:44:01.900Z,97376.00
2023-02-16T04:46:33.499Z,97375.91
2023-02-16T04:49:05.937Z,97315.88
2023-02-16T04:51:36.053Z,97373.38
2023-02-16T04:54:03.927Z,97382.44
2023-02-16T04:56:36.908Z,97373.56
2023-02-16T04:59:08.562Z,97378.00
2023-02-16T05:01:38.628Z,97382.59
2023-02-16T05:04:13.194Z,97368.50
2023-02-16T05:06:41.083Z,97369.31
2023-02-16T05:09:11.536Z,97381.41
2023-02-16T05:11:56.717Z,97371.97
2023-02-16T05:14:45.102Z,97368.69
2023-02-16T05:17:18.878Z,97373.19
2023-02-16T05:19:49.565Z,97360.84
2023-02-16T05:22:20.931Z,97388.47
2023-02-16T05:24:53.297Z,97373.94
2023-02-16T05:27:27.045Z,97374.16
2023-02-16T05:29:57.644Z,97366.28
2023-02-16T05:32:25.760Z,97384.25
2023-02-16T05:34:55.374Z,97379.63
2023-02-16T05:37:23.236Z,97344.53
2023-02-16T05:39:52.777Z,97379.59
2023-02-16T05:42:39.112Z,97368.75
2023-02-16T05:45:12.384Z,97366.91
2023-02-16T05:47:40.171Z,97379.16
2023-02-16T05:50:10.695Z,97398.94
2023-02-16T05:52:44.663Z,97390.13
2023-02-16T05:55:12.833Z,97391.91
2023-02-16T05:57:41.878Z,97395.13
2023-02-16T06:00:10.997Z,97390.38
2023-02-16T06:02:49.030Z,97388.41
2023-02-16T06:05:18.284Z,97395.28
2023-02-16T06:07:47.918Z,97345.31
2023-02-16T06:10:16.384Z,97402.94
2023-02-16T06:12:44.993Z,97400.56
2023-02-16T06:15:15.739Z,97400.44
2023-02-16T06:17:44.885Z,97408.09
2023-02-16T06:20:13.524Z,97401.66
2023-02-16T06:22:42.815Z,97359.94
2023-02-16T06:25:11.467Z,97405.31
2023-02-16T06:27:42.407Z,97415.97
2023-02-16T06:30:19.796Z,97402.50
2023-02-16T06:32:48.328Z,97418.09
2023-02-16T06:35:16.363Z,97386.25
2023-02-16T06:37:55.617Z,97387.50
2023-02-16T06:40:23.693Z,97413.84
2023-02-16T06:42:58.808Z,97414.66
2023-02-16T06:45:26.679Z,97416.66
2023-02-16T06:47:54.560Z,97421.06
2023-02-16T06:50:24.372Z,97412.88
2023-02-16T06:52:55.247Z,97423.44
2023-02-16T06:55:27.994Z,97369.09
2023-02-16T06:57:55.831Z,97415.50
2023-02-16T07:00:23.815Z,97390.28
2023-02-16T07:02:51.803Z,97421.63
2023-02-16T07:05:19.726Z,97421.31
2023-02-16T07:07:50.565Z,97429.84
2023-02-16T07:10:20.580Z,97411.50
2023-02-16T07:12:49.784Z,97423.97
2023-02-16T07:15:17.808Z,97393.94
2023-02-16T07:17:45.737Z,97419.88
2023-02-16T07:20:15.820Z,97431.44
2023-02-16T07:22:47.119Z,97422.03
2023-02-16T07:25:21.632Z,97423.53
2023-02-16T07:27:49.516Z,97417.31
2023-02-16T07:30:18.948Z,97426.38
2023-02-16T07:32:49.847Z,97415.03
2023-02-16T07:35:18.422Z,97423.16
2023-02-16T07:37:46.334Z,97429.88
2023-02-16T07:40:16.834Z,97429.41
2023-02-16T07:42:47.551Z,97383.19
2023-02-16T07:45:17.328Z,97437.56
2023-02-16T07:47:47.865Z,97381.31
2023-02-16T07:50:19.891Z,97414.44
2023-02-16T07:52:50.509Z,97431.13
2023-02-16T07:55:18.582Z,97431.91
2023-02-16T07:57:55.387Z,97433.34
2023-02-16T08:00:23.616Z,97426.66
2023-02-16T08:02:54.461Z,97454.28
2023-02-16T08:05:25.881Z,97447.38
2023-02-16T08:07:54.176Z,97432.81
2023-02-16T08:10:27.121Z,97435.81
2023-02-16T08:12:57.905Z,97445.19
2023-02-16T08:15:29.159Z,97434.75
2023-02-16T08:17:57.932Z,97478.78
2023-02-16T08:20:48.273Z,97433.41
2023-02-16T08:23:18.428Z,97437.72
2023-02-16T08:25:49.001Z,97397.84
2023-02-16T08:28:22.432Z,97481.94
2023-02-16T08:30:53.451Z,97429.25
2023-02-16T08:33:23.650Z,97452.66
2023-02-16T08:35:52.258Z,97444.75
2023-02-16T08:38:22.846Z,97442.56
2023-02-16T08:40:52.878Z,97428.94
2023-02-16T08:43:22.837Z,97446.88
2023-02-16T08:45:53.509Z,97459.66
2023-02-16T08:48:24.449Z,97428.59
2023-02-16T08:50:57.240Z,97358.63
2023-02-16T08:53:33.245Z,97438.72
2023-02-16T08:56:11.094Z,97404.31
2023-02-16T08:58:44.300Z,97437.53
2023-02-16T09:01:12.838Z,97226.59
2023-02-16T09:03:42.834Z,97433.59
2023-02-16T09:06:23.981Z,97433.16
2023-02-16T09:08:55.059Z,97440.28
2023-02-16T09:11:26.214Z,97443.47
2023-02-16T09:13:56.058Z,97427.63
2023-02-16T09:16:27.863Z,97444.09
2023-02-16T09:18:57.327Z,97446.25
2023-02-16T09:21:28.337Z,97175.69
2023-02-16T09:23:58.322Z,97368.06
2023-02-16T09:26:26.924Z,97432.91
2023-02-16T09:28:58.807Z,97444.28
2023-02-16T09:31:31.167Z,97444.28
2023-02-16T09:34:02.467Z,97444.16
2023-02-16T09:36:31.115Z,97431.09
2023-02-16T09:39:11.543Z,97429.88
2023-02-16T09:41:59.149Z,97432.66
2023-02-16T09:44:34.737Z,97421.31
2023-02-16T09:47:06.250Z,97414.06
2023-02-16T09:49:37.959Z,97424.25
2023-02-16T09:52:11.532Z,97417.41
2023-02-16T09:54:51.797Z,97418.25
2023-02-16T09:57:36.969Z,97413.66
2023-02-16T10:00:14.536Z,97350.66
2023-02-16T10:02:49.019Z,97412.59
2023-02-16T10:05:24.869Z,97409.03
2023-02-16T10:08:06.455Z,97410.25
2023-02-16T10:10:47.002Z,97413.56
2023-02-16T10:13:26.273Z,97417.97
2023-02-16T10:15:57.757Z,97414.94
2023-02-16T10:18:33.465Z,97372.56
2023-02-16T10:21:05.926Z,97402.13
2023-02-16T10:23:42.197Z,97402.97
2023-02-16T10:26:22.726Z,97406.44
2023-02-16T10:28:54.988Z,97404.50
2023-02-16T10:31:30.839Z,97398.22
2023-02-16T10:34:08.070Z,97419.41
2023-02-16T10:36:50.316Z,97398.44
2023-02-16T10:39:23.916Z,97393.75
2023-02-16T10:41:57.384Z,97346.00
2023-02-16T10:44:30.414Z,97407.28
2023-02-16T10:47:04.466Z,97362.09
2023-02-16T10:49:33.739Z,97387.22
2023-02-16T10:52:06.042Z,97408.63
2023-02-16T10:54:36.312Z,97381.34
2023-02-16T10:57:07.785Z,97377.81
2023-02-16T10:59:42.655Z,97380.06
2023-02-16T11:02:20.326Z,97378.75
2023-02-16T11:04:50.159Z,97338.16
2023-02-16T11:07:20.099Z,97359.34
2023-02-16T11:09:51.178Z,97404.09
2023-02-16T11:12:27.223Z,97343.63
2023-02-16T11:14:57.377Z,97350.34
2023-02-16T11:17:27.892Z,97363.81
2023-02-16T11:20:00.775Z,97351.53
2023-02-16T11:22:37.005Z,97356.03
2023-02-16T11:25:28.197Z,97360.63
2023-02-16T11:28:00.203Z,97308.38
2023-02-16T11:30:35.619Z,97350.53
2023-02-16T11:33:19.549Z,97353.47
2023-02-16T11:35:49.466Z,97349.97
2023-02-16T11:38:34.564Z,97348.31
2023-02-16T11:41:08.436Z,97333.41
2023-02-16T11:43:39.268Z,97334.44
2023-02-16T11:46:21.019Z,97318.34
2023-02-16T11:48:55.476Z,97322.19
2023-02-16T11:51:35.106Z,97327.69
2023-02-16T11:54:06.094Z,97320.84
2023-02-16T11:56:37.692Z,97313.34
2023-02-16T11:59:21.191Z,97315.63
2023-02-16T12:02:01.312Z,97306.81
2023-02-16T12:04:44.977Z,97304.13
2023-02-16T12:07:23.131Z,97313.47
2023-02-16T12:09:56.924Z,97266.53
2023-02-16T12:12:34.493Z,97298.78
2023-02-16T12:15:10.035Z,97289.47
2023-02-16T12:17:49.148Z,97292.47
2023-02-16T12:20:39.251Z,97272.63
2023-02-16T12:23:22.842Z,97266.66
2023-02-16T12:25:54.527Z,97065.16
2023-02-16T12:28:27.751Z,97274.31
2023-02-16T12:31:06.243Z,97268.81
2023-02-16T12:33:43.564Z,97271.66
2023-02-16T12:36:40.787Z,97264.75
2023-02-16T12:39:19.720Z,97257.56
2023-02-16T12:42:00.124Z,97259.19
2023-02-16T12:44:34.349Z,97242.81
2023-02-16T12:47:05.245Z,97211.59
2023-02-16T12:49:40.975Z,97255.00
2023-02-16T12:52:13.810Z,97256.13
2023-02-16T12:54:45.923Z,97253.25
2023-02-16T12:57:15.815Z,97244.97
2023-02-16T12:59:49.922Z,97238.97
2023-02-16T13:02:21.557Z,97243.56
2023-02-16T13:04:52.101Z,97170.69
2023-02-16T13:07:26.792Z,97237.03
2023-02-16T13:10:05.838Z,97223.19
2023-02-16T13:12:36.564Z,97197.84
2023-02-16T13:15:12.409Z,97214.97
2023-02-16T13:17:42.832Z,97229.53
2023-02-16T13:20:16.697Z,97225.56
2023-02-16T13:23:06.215Z,97228.81
2023-02-16T13:26:00.146Z,97220.97
2023-02-16T13:28:47.972Z,97229.41
2023-02-16T13:31:27.706Z,97218.16
2023-02-16T13:34:23.188Z,97225.69
2023-02-16T13:36:58.158Z,97217.72
2023-02-16T13:39:41.094Z,97225.03
2023-02-16T13:42:36.763Z,97223.84
2023-02-16T13:45:11.334Z,97221.94
2023-02-16T13:47:42.632Z,97233.06
2023-02-16T13:50:27.218Z,97234.59
2023-02-16T13:52:57.623Z,97224.91
2023-02-16T13:55:32.520Z,97173.41
2023-02-16T13:58:14.021Z,97224.66
2023-02-16T14:00:47.647Z,97228.97
2023-02-16T14:03:38.013Z,96996.00
2023-02-16T14:06:35.371Z,97235.16
2023-02-16T14:09:36.939Z,97238.91
2023-02-16T14:12:17.284Z,97237.44
2023-02-16T14:14:57.288Z,97240.84
2023-02-16T14:17:28.273Z,97263.09
2023-02-16T14:20:01.092Z,97242.31
2023-02-16T14:22:48.239Z,97240.66
2023-02-16T14:25:38.852Z,97245.00
2023-02-16T14:28:48.024Z,97237.78
2023-02-16T14:31:18.871Z,97242.84
2023-02-16T14:33:50.276Z,97248.44
2023-02-16T14:36:24.345Z,97253.50
2023-02-16T14:38:53.142Z,97253.78
2023-02-16T14:41:32.928Z,97241.78
2023-02-16T14:44:27.802Z,97223.50
2023-02-16T14:47:08.189Z,97253.44
2023-02-16T14:50:03.774Z,97252.81
2023-02-16T14:53:07.735Z,97260.50
2023-02-16T14:55:59.727Z,97249.56
2023-02-16T14:58:31.934Z,97154.88
2023-02-16T15:01:10.561Z,97237.78
2023-02-16T15:03:46.535Z,97245.19
2023-02-16T15:06:30.307Z,97170.91
2023-02-16T15:09:02.329Z,97219.00
2023-02-16T15:11:33.202Z,97232.97
2023-02-16T15:14:08.337Z,97243.81
2023-02-16T15:16:40.607Z,97231.38
2023-02-16T15:19:13.514Z,97218.19
2023-02-16T15:21:41.547Z,97201.38
2023-02-16T15:24:26.889Z,97189.72
2023-02-16T15:26:58.177Z,97218.81
2023-02-16T15:29:27.785Z,97210.25
2023-02-16T15:32:00.509Z,97220.94
2023-02-16T15:34:33.932Z,97168.53
2023-02-16T15:37:07.216Z,97225.78
2023-02-16T15:39:49.753Z,97225.19
2023-02-16T15:42:28.992Z,97226.06
2023-02-16T15:44:59.287Z,97206.59
2023-02-16T15:47:34.148Z,97221.38
2023-02-16T15:50:13.389Z,97210.66
2023-02-16T15:52:46.286Z,97183.00
2023-02-16T15:55:17.375Z,97215.31
2023-02-16T15:57:45.508Z,97198.47
2023-02-16T16:00:23.532Z,97203.91
2023-02-16T16:02:55.143Z,97177.28
2023-02-16T16:05:26.277Z,97208.69
2023-02-16T16:07:55.275Z,97204.00
2023-02-16T16:10:30.232Z,97203.69
2023-02-16T16:13:02.984Z,97191.56
2023-02-16T16:15:38.037Z,97218.06
2023-02-16T16:18:08.911Z,97216.66
2023-02-16T16:20:38.493Z,97183.94
2023-02-16T16:23:08.788Z,97215.41
2023-02-16T16:25:46.119Z,97220.66
2023-02-16T16:28:16.020Z,97212.09
2023-02-16T16:30:46.932Z,97204.34
2023-02-16T16:33:17.086Z,97201.94
2023-02-16T16:35:47.810Z,97202.97
2023-02-16T16:38:24.753Z,97213.16
2023-02-16T16:40:54.262Z,97208.44
2023-02-16T16:43:24.554Z,97223.69
2023-02-16T16:45:58.730Z,97208.97
2023-02-16T16:48:31.532Z,97210.78
2023-02-16T16:51:11.345Z,97201.97
2023-02-16T16:53:53.490Z,97170.25
2023-02-16T16:56:22.195Z,97214.97
2023-02-16T16:58:51.436Z,97217.16
2023-02-16T17:01:29.831Z,97221.69
2023-02-16T17:03:59.569Z,97209.19
2023-02-16T17:06:27.973Z,97193.69
2023-02-16T17:08:56.825Z,97214.22
2023-02-16T17:11:27.725Z,97214.56
2023-02-16T17:13:58.662Z,97223.59
2023-02-16T17:16:35.414Z,97211.59
2023-02-16T17:19:08.132Z,97206.28
2023-02-16T17:21:45.134Z,97229.16
2023-02-16T17:24:17.283Z,97231.00
2023-02-16T17:26:45.428Z,97239.81
2023-02-16T17:29:16.119Z,97169.53
2023-02-16T17:31:49.478Z,97231.03
2023-02-16T17:34:19.794Z,97228.63
2023-02-16T17:36:47.794Z,97241.47
2023-02-16T17:39:17.301Z,97239.31
2023-02-16T17:41:47.416Z,97245.69
2023-02-16T17:44:16.232Z,97190.06
2023-02-16T17:46:44.541Z,97252.41
2023-02-16T17:49:15.092Z,97261.44
2023-02-16T17:51:48.281Z,97254.25
2023-02-16T17:54:20.673Z,97253.19
2023-02-16T17:56:50.167Z,97256.94
2023-02-16T17:59:20.206Z,97256.94
2023-02-16T18:01:50.536Z,97250.81
2023-02-16T18:04:18.326Z,97252.16
2023-02-16T18:06:51.268Z,97255.38
2023-02-16T18:09:27.390Z,97252.44
2023-02-16T18:11:55.448Z,97251.88
2023-02-16T18:14:24.757Z,97248.44
2023-02-16T18:16:55.623Z,97257.22
2023-02-16T18:19:23.730Z,97261.22
2023-02-16T18:21:56.385Z,97261.75
2023-02-16T18:24:24.388Z,97239.66
2023-02-16T18:26:52.259Z,97256.16
2023-02-16T18:29:22.440Z,97255.66
2023-02-16T18:31:53.429Z,97260.94
2023-02-16T18:34:21.643Z,97261.50
2023-02-16T18:36:51.181Z,97262.31
2023-02-16T18:39:33.564Z,97227.06
2023-02-16T18:42:01.372Z,97258.56
2023-02-16T18:44:29.314Z,97259.91
2023-02-16T18:46:57.322Z,97259.91
2023-02-16T18:49:25.305Z,97248.38
2023-02-16T18:51:53.324Z,97253.91
2023-02-16T18:54:22.504Z,97274.44
2023-02-16T18:56:50.397Z,97262.84
2023-02-16T18:59:20.083Z,97271.94
2023-02-16T19:01:47.954Z,97202.91
2023-02-16T19:04:15.858Z,97247.84
2023-02-16T19:06:44.914Z,97272.75
2023-02-16T19:09:12.711Z,97272.06
2023-02-16T19:11:50.746Z,97274.44
2023-02-16T19:14:21.269Z,97272.06
2023-02-16T19:16:49.486Z,97276.75
2023-02-16T19:19:22.962Z,97257.88
2023-02-16T19:21:50.870Z,97197.69
2023-02-16T19:24:18.767Z,97271.31
2023-02-16T19:26:48.017Z,97210.91
2023-02-16T19:29:17.051Z,97271.69
2023-02-16T19:31:47.649Z,97264.28
2023-02-16T19:34:17.108Z,97219.88
2023-02-16T19:36:45.336Z,97279.69
2023-02-16T19:39:13.211Z,97271.81
2023-02-16T19:41:43.202Z,97273.97
2023-02-16T19:44:14.461Z,97234.63
2023-02-16T19:46:49.787Z,97263.75
2023-02-16T19:49:23.995Z,97279.06
2023-02-16T19:51:52.578Z,97273.09
2023-02-16T19:54:22.077Z,97274.19
2023-02-16T19:56:49.896Z,97280.69
2023-02-16T19:59:23.226Z,97272.59
2023-02-16T20:01:51.280Z,97270.56
2023-02-16T20:04:20.490Z,97247.53
2023-02-16T20:06:48.934Z,97285.72
2023-02-16T20:09:18.903Z,97291.16
2023-02-16T20:11:47.005Z,97287.09
2023-02-16T20:14:17.732Z,97214.66
2023-02-16T20:16:49.576Z,97292.00
2023-02-16T20:19:17.436Z,97275.56
2023-02-16T20:21:46.375Z,97299.94
2023-02-16T20:24:15.362Z,97260.44
2023-02-16T20:26:49.019Z,97292.28
2023-02-16T20:29:19.900Z,97293.91
2023-02-16T20:31:56.109Z,97264.16
2023-02-16T20:34:26.091Z,97298.31
2023-02-16T20:36:55.378Z,97205.22
2023-02-16T20:39:23.732Z,97297.59
2023-02-16T20:41:58.685Z,97294.66
2023-02-16T20:44:27.450Z,97292.03
2023-02-16T20:46:56.837Z,97299.34
2023-02-16T20:49:27.003Z,97282.72
2023-02-16T20:51:57.976Z,97273.31
2023-02-16T20:54:30.841Z,97292.94
2023-02-16T20:56:58.689Z,97292.59
2023-02-16T20:59:28.508Z,97280.44
2023-02-16T21:02:00.301Z,97287.78
2023-02-16T21:04:28.187Z,97278.69
2023-02-16T21:07:03.962Z,97237.97
2023-02-16T21:09:34.261Z,96953.63
2023-02-16T21:12:02.125Z,97263.91
2023-02-16T21:14:30.017Z,97269.06
2023-02-16T21:17:02.535Z,97269.38
2023-02-16T21:19:30.471Z,97229.75
2023-02-16T21:21:58.437Z,97222.56
2023-02-16T21:24:29.091Z,97264.13
2023-02-16T21:27:07.980Z,97275.41
2023-02-16T21:29:35.812Z,97273.34
2023-02-16T21:32:14.081Z,97270.50
2023-02-16T21:34:43.403Z,97275.63
2023-02-16T21:37:11.724Z,97278.50
2023-02-16T21:39:57.076Z,97271.94
2023-02-16T21:42:30.554Z,97267.00
2023-02-16T21:45:12.342Z,97263.97
2023-02-16T21:47:59.763Z,97263.84
2023-02-16T21:50:28.203Z,97213.53
2023-02-16T21:53:00.017Z,97247.44
2023-02-16T21:55:46.042Z,97267.53
2023-02-16T21:58:14.018Z,97259.41
2023-02-16T22:00:44.926Z,97259.16
2023-02-16T22:03:14.484Z,97254.53
2023-02-16T22:05:50.742Z,97260.19
2023-02-16T22:08:18.998Z,97261.31
2023-02-16T22:10:46.775Z,97262.19
2023-02-16T22:13:20.513Z,97254.72
2023-02-16T22:15:49.044Z,97251.38
2023-02-16T22:18:18.321Z,97240.03
2023-02-16T22:20:46.322Z,97240.47
2023-02-16T22:25:58.802Z,97248.97
2023-02-16T22:28:26.715Z,97253.06
2023-02-16T22:30:54.632Z,97250.53
2023-02-16T22:33:31.046Z,97251.13
2023-02-16T22:35:59.172Z,97254.13
2023-02-16T22:38:27.671Z,97248.66
2023-02-16T22:40:55.584Z,97246.69
2023-02-16T22:43:23.401Z,97167.25
2023-02-16T22:45:57.360Z,97233.44
2023-02-16T22:48:26.866Z,97246.06
2023-02-16T22:51:03.185Z,97239.59
2023-02-16T22:53:34.140Z,97210.75
2023-02-16T22:56:02.084Z,97244.63
2023-02-16T22:58:30.558Z,97243.75
2023-02-16T23:01:01.183Z,97249.50
2023-02-16T23:03:31.913Z,97213.13
2023-02-16T23:05:59.864Z,97230.13
2023-02-16T23:08:29.790Z,97214.81
2023-02-16T23:11:06.667Z,97236.31
2023-02-16T23:13:38.136Z,97232.09
2023-02-16T23:16:08.152Z,97244.63
2023-02-16T23:18:37.517Z,97243.53
2023-02-16T23:21:17.446Z,97226.97
2023-02-16T23:23:46.775Z,97169.88
2023-02-16T23:26:15.073Z,97238.38
2023-02-16T23:28:44.182Z,97239.84
2023-02-16T23:31:13.499Z,97231.19
2023-02-16T23:33:44.501Z,97240.47
2023-02-16T23:36:17.735Z,97237.34
2023-02-16T23:38:46.031Z,97247.44
2023-02-16T23:41:15.574Z,97205.91
2023-02-16T23:43:47.789Z,97233.97
2023-02-16T23:46:15.687Z,96945.47
2023-02-16T23:48:49.128Z,97241.25
2023-02-16T23:51:18.158Z,97232.22
2023-02-16T23:53:48.983Z,97230.94
2023-02-16T23:56:29.732Z,97233.34
2023-02-16T23:58:59.596Z,97227.22
